createdAt,value
2022-12-23T00:01:58.831Z,4.41
2022-12-23T00:04:33.355Z,4.30
2022-12-23T00:07:07.727Z,4.41
2022-12-23T00:09:42.412Z,4.38
2022-12-23T00:12:34.180Z,4.38
2022-12-23T00:15:10.036Z,4.26
2022-12-23T00:17:46.678Z,4.24
2022-12-23T00:20:22.216Z,4.32
2022-12-23T00:23:08.751Z,4.33
2022-12-23T00:25:45.028Z,4.41
2022-12-23T00:28:22.280Z,4.37
2022-12-23T00:31:01.549Z,4.22
2022-12-23T00:33:38.821Z,4.28
2022-12-23T00:36:15.622Z,4.42
2022-12-23T00:39:08.282Z,4.48
2022-12-23T00:42:00.503Z,4.48
2022-12-23T00:44:34.720Z,4.38
2022-12-23T00:47:29.159Z,4.27
2022-12-23T00:50:10.158Z,4.36
2022-12-23T00:52:44.649Z,4.20
2022-12-23T00:55:18.855Z,4.27
2022-12-23T00:57:53.459Z,4.24
2022-12-23T01:00:41.523Z,4.30
2022-12-23T01:03:34.468Z,4.28
2022-12-23T01:06:10.237Z,4.21
2022-12-23T01:08:45.047Z,4.40
2022-12-23T01:11:19.233Z,4.18
2022-12-23T01:13:53.868Z,4.23
2022-12-23T01:16:28.134Z,4.27
2022-12-23T01:19:02.591Z,4.23
2022-12-23T01:21:38.638Z,4.17
2022-12-23T01:24:13.085Z,4.31
2022-12-23T01:26:47.249Z,4.15
2022-12-23T01:29:21.763Z,4.07
2022-12-23T01:31:56.002Z,4.25
2022-12-23T01:34:36.391Z,4.15
2022-12-23T01:37:12.592Z,4.06
2022-12-23T01:39:47.223Z,4.26
2022-12-23T01:42:39.667Z,4.26
2022-12-23T01:45:19.728Z,4.15
2022-12-23T01:47:57.256Z,4.22
2022-12-23T01:50:36.738Z,4.05
2022-12-23T01:53:16.410Z,3.82
2022-12-23T01:55:54.328Z,3.95
2022-12-23T01:58:33.346Z,4.02
2022-12-23T02:01:26.444Z,3.99
2022-12-23T02:04:05.745Z,4.12
2022-12-23T02:06:59.165Z,4.16
2022-12-23T02:09:36.857Z,4.07
2022-12-23T02:12:32.686Z,3.95
2022-12-23T02:15:42.555Z,3.80
2022-12-23T02:18:52.758Z,3.88
2022-12-23T02:22:14.630Z,3.75
2022-12-23T02:25:15.881Z,3.75
2022-12-23T02:28:13.352Z,3.60
2022-12-23T02:30:57.801Z,3.67
2022-12-23T02:33:50.245Z,3.66
2022-12-23T02:36:35.851Z,3.51
2022-12-23T02:39:14.966Z,3.61
2022-12-23T02:41:58.627Z,3.61
2022-12-23T02:44:40.739Z,3.57
2022-12-23T02:47:21.272Z,3.67
2022-12-23T02:49:57.090Z,3.71
2022-12-23T02:52:33.881Z,3.72
2022-12-23T02:55:13.627Z,3.44
2022-12-23T02:57:51.104Z,3.47
2022-12-23T03:00:26.024Z,3.48
2022-12-23T03:03:01.796Z,3.58
2022-12-23T03:05:41.237Z,3.50
2022-12-23T03:08:18.537Z,3.60
2022-12-23T03:11:04.508Z,3.70
2022-12-23T03:14:05.097Z,3.69
2022-12-23T03:16:51.537Z,3.65
2022-12-23T03:19:32.847Z,3.82
2022-12-23T03:22:16.523Z,3.87
2022-12-23T03:24:57.010Z,3.81
2022-12-23T03:27:38.142Z,3.71
2022-12-23T03:30:15.690Z,3.66
2022-12-23T03:32:55.163Z,3.61
2022-12-23T03:35:35.399Z,3.58
2022-12-23T03:38:14.303Z,3.57
2022-12-23T03:40:54.025Z,3.52
2022-12-23T03:43:34.350Z,3.54
2022-12-23T03:46:13.779Z,3.43
2022-12-23T03:48:53.069Z,3.55
2022-12-23T03:51:33.400Z,3.55
2022-12-23T03:54:13.878Z,3.45
2022-12-23T03:56:54.439Z,3.50
2022-12-23T03:59:30.607Z,3.59
2022-12-23T04:02:10.090Z,3.77
2022-12-23T04:05:17.639Z,3.76
2022-12-23T04:07:58.124Z,3.72
2022-12-23T04:10:35.781Z,3.70
2022-12-23T04:13:10.203Z,3.61
2022-12-23T04:15:45.029Z,3.77
2022-12-23T04:18:19.271Z,3.58
2022-12-23T04:20:54.161Z,3.50
2022-12-23T04:23:29.677Z,3.58
2022-12-23T04:26:04.123Z,3.53
2022-12-23T04:28:38.474Z,3.59
2022-12-23T04:31:13.054Z,3.37
2022-12-23T04:33:47.259Z,3.39
2022-12-23T04:36:21.701Z,3.56
2022-12-23T04:38:57.668Z,3.49
2022-12-23T04:41:32.110Z,3.48
2022-12-23T04:44:06.625Z,3.51
2022-12-23T04:46:41.391Z,3.34
2022-12-23T04:49:15.547Z,3.47
2022-12-23T04:51:50.566Z,3.50
2022-12-23T04:54:26.220Z,3.53
2022-12-23T04:57:00.655Z,3.53
2022-12-23T04:59:35.251Z,3.41
2022-12-23T05:02:10.089Z,3.47
2022-12-23T05:04:44.474Z,3.52
2022-12-23T05:07:19.078Z,3.48
2022-12-23T05:09:54.984Z,3.30
2022-12-23T05:12:30.213Z,3.40
2022-12-23T05:15:04.409Z,3.38
2022-12-23T05:17:38.874Z,3.39
2022-12-23T05:20:13.283Z,3.44
2022-12-23T05:22:47.756Z,3.21
2022-12-23T05:25:23.321Z,3.39
2022-12-23T05:27:58.072Z,3.42
2022-12-23T05:30:35.089Z,3.40
2022-12-23T05:33:09.582Z,3.32
2022-12-23T05:35:43.747Z,3.29
2022-12-23T05:38:18.243Z,3.23
2022-12-23T05:40:54.084Z,3.33
2022-12-23T05:43:28.671Z,3.28
2022-12-23T05:46:03.057Z,3.05
2022-12-23T05:48:37.574Z,3.23
2022-12-23T05:51:11.780Z,3.23
2022-12-23T05:53:46.237Z,3.34
2022-12-23T05:56:21.710Z,3.36
2022-12-23T05:58:56.161Z,3.23
2022-12-23T06:01:30.610Z,3.21
2022-12-23T06:04:05.497Z,3.34
2022-12-23T06:06:39.704Z,3.22
2022-12-23T06:09:14.395Z,3.28
2022-12-23T06:11:50.290Z,3.20
2022-12-23T06:14:28.861Z,3.16
2022-12-23T06:17:03.658Z,2.83
2022-12-23T06:19:38.134Z,3.00
2022-12-23T06:22:12.204Z,2.83
2022-12-23T06:24:46.654Z,2.85
2022-12-23T06:27:22.132Z,2.83
2022-12-23T06:29:56.932Z,2.90
2022-12-23T06:32:37.767Z,2.71
2022-12-23T06:35:13.499Z,2.91
2022-12-23T06:37:47.604Z,2.90
2022-12-23T06:40:22.571Z,2.59
2022-12-23T06:42:58.090Z,2.87
2022-12-23T06:45:32.545Z,2.85
2022-12-23T06:48:07.301Z,2.87
2022-12-23T06:50:45.874Z,4.45
2022-12-23T06:53:20.653Z,7.40
2022-12-23T06:56:00.937Z,5.78
2022-12-23T06:58:37.689Z,4.39
2022-12-23T07:01:12.568Z,4.10
2022-12-23T07:03:47.128Z,3.52
2022-12-23T07:06:21.788Z,3.47
2022-12-23T07:08:55.971Z,3.29
2022-12-23T07:11:30.737Z,3.14
2022-12-23T07:14:06.338Z,3.09
2022-12-23T07:16:40.904Z,2.99
2022-12-23T07:19:15.366Z,3.03
2022-12-23T07:21:49.976Z,3.05
2022-12-23T07:24:24.181Z,2.95
2022-12-23T07:26:59.053Z,2.88
2022-12-23T07:29:34.655Z,3.03
2022-12-23T07:32:09.418Z,2.90
2022-12-23T07:34:43.544Z,3.13
2022-12-23T07:37:17.920Z,3.04
2022-12-23T07:39:54.698Z,3.07
2022-12-23T07:42:46.548Z,3.01
2022-12-23T07:45:22.951Z,3.01
2022-12-23T07:47:59.168Z,6.16
2022-12-23T07:50:34.870Z,4.84
2022-12-23T07:53:09.395Z,3.91
2022-12-23T07:55:43.511Z,3.60
2022-12-23T07:58:17.960Z,6.62
2022-12-23T08:01:00.887Z,7.67
2022-12-23T08:03:36.044Z,6.79
2022-12-23T08:06:12.833Z,5.60
2022-12-23T08:08:48.198Z,4.71
2022-12-23T08:11:22.323Z,4.34
2022-12-23T08:13:56.754Z,4.10
2022-12-23T08:16:36.573Z,4.08
2022-12-23T08:19:14.078Z,3.73
2022-12-23T08:21:48.391Z,3.79
2022-12-23T08:24:23.100Z,3.64
2022-12-23T08:26:58.317Z,3.60
2022-12-23T08:29:36.384Z,3.57
2022-12-23T08:32:12.230Z,3.42
2022-12-23T08:34:46.749Z,3.51
2022-12-23T08:37:20.918Z,3.62
2022-12-23T08:39:59.659Z,3.51
2022-12-23T08:42:33.844Z,3.98
2022-12-23T08:45:09.358Z,3.88
2022-12-23T08:47:44.996Z,3.98
2022-12-23T08:50:20.093Z,3.87
2022-12-23T08:52:54.179Z,3.95
2022-12-23T08:55:28.711Z,3.88
2022-12-23T08:58:03.000Z,3.67
2022-12-23T09:00:41.268Z,3.81
2022-12-23T09:03:17.492Z,3.86
2022-12-23T09:05:52.013Z,3.96
2022-12-23T09:08:26.186Z,3.86
2022-12-23T09:11:00.896Z,3.77
2022-12-23T09:13:36.029Z,3.99
2022-12-23T09:16:11.332Z,3.87
2022-12-23T09:18:47.106Z,4.03
2022-12-23T09:21:23.864Z,5.88
2022-12-23T09:23:58.046Z,4.82
2022-12-23T09:26:33.180Z,6.56
2022-12-23T09:29:07.371Z,7.85
2022-12-23T09:31:41.866Z,6.61
2022-12-23T09:34:17.399Z,6.58
2022-12-23T09:36:55.245Z,5.36
2022-12-23T09:39:29.781Z,5.94
2022-12-23T09:42:08.609Z,6.33
2022-12-23T09:45:00.190Z,7.36
2022-12-23T09:47:35.993Z,6.41
2022-12-23T09:50:21.414Z,7.05
2022-12-23T09:53:01.820Z,6.87
2022-12-23T09:55:47.414Z,8.00
2022-12-23T09:58:30.296Z,8.60
2022-12-23T10:01:14.917Z,7.48
2022-12-23T10:04:05.745Z,8.24
2022-12-23T10:06:42.690Z,8.67
2022-12-23T10:09:18.856Z,9.43
2022-12-23T10:11:53.547Z,10.22
2022-12-23T10:14:31.346Z,10.00
2022-12-23T10:17:14.464Z,9.54
2022-12-23T10:19:51.205Z,9.98
2022-12-23T10:22:33.245Z,9.90
2022-12-23T10:25:16.301Z,10.05
2022-12-23T10:27:50.490Z,10.49
2022-12-23T10:30:54.012Z,10.57
2022-12-23T10:33:24.414Z,10.25
2022-12-23T10:36:06.483Z,8.77
2022-12-23T10:39:03.090Z,7.84
2022-12-23T10:41:46.484Z,7.38
2022-12-23T10:44:47.422Z,7.00
2022-12-23T10:47:32.639Z,6.84
2022-12-23T10:50:29.681Z,6.50
2022-12-23T10:53:07.705Z,6.72
2022-12-23T10:55:43.650Z,6.50
2022-12-23T10:58:19.387Z,6.62
2022-12-23T11:00:56.714Z,6.80
2022-12-23T11:03:33.783Z,6.63
2022-12-23T11:06:10.932Z,6.60
2022-12-23T11:08:45.534Z,6.62
2022-12-23T11:11:21.137Z,6.70
2022-12-23T11:13:55.619Z,6.76
2022-12-23T11:16:30.346Z,6.88
2022-12-23T11:19:07.801Z,6.96
2022-12-23T11:21:55.604Z,7.05
2022-12-23T11:24:38.032Z,7.31
2022-12-23T11:27:17.323Z,7.56
2022-12-23T11:29:55.785Z,9.94
2022-12-23T11:32:30.753Z,11.26
2022-12-23T11:35:05.605Z,10.63
2022-12-23T11:37:44.237Z,9.91
2022-12-23T11:40:26.877Z,9.71
2022-12-23T11:43:04.381Z,9.47
2022-12-23T11:45:39.884Z,9.23
2022-12-23T11:48:28.868Z,9.15
2022-12-23T11:51:05.604Z,9.22
2022-12-23T11:53:44.269Z,9.15
2022-12-23T11:56:18.922Z,9.26
2022-12-23T11:58:58.296Z,9.08
2022-12-23T12:01:33.726Z,9.25
2022-12-23T12:04:10.510Z,9.27
2022-12-23T12:06:52.693Z,9.28
2022-12-23T12:09:32.939Z,9.41
2022-12-23T12:12:13.615Z,9.75
2022-12-23T12:14:50.599Z,9.80
2022-12-23T12:17:28.654Z,9.88
2022-12-23T12:20:11.840Z,10.16
2022-12-23T12:22:52.927Z,10.39
2022-12-23T12:25:39.648Z,10.68
2022-12-23T12:28:19.880Z,10.75
2022-12-23T12:30:59.157Z,11.12
2022-12-23T12:33:39.694Z,11.26
2022-12-23T12:36:22.339Z,13.47
2022-12-23T12:39:00.225Z,13.28
2022-12-23T12:41:39.404Z,12.54
2022-12-23T12:44:31.643Z,12.48
2022-12-23T12:47:28.578Z,12.15
2022-12-23T12:50:17.348Z,11.81
2022-12-23T12:52:55.341Z,11.65
2022-12-23T12:55:33.835Z,11.97
2022-12-23T12:58:16.886Z,11.93
2022-12-23T13:01:04.203Z,11.79
2022-12-23T13:04:13.154Z,11.22
2022-12-23T13:06:55.333Z,11.05
2022-12-23T13:09:38.468Z,11.57
2022-12-23T13:12:23.600Z,12.82
2022-12-23T13:15:06.648Z,11.88
2022-12-23T13:17:46.878Z,11.47
2022-12-23T13:20:34.087Z,11.01
2022-12-23T13:23:42.484Z,10.66
2022-12-23T13:26:19.433Z,10.36
2022-12-23T13:29:06.345Z,10.10
2022-12-23T13:31:50.394Z,9.90
2022-12-23T13:34:37.332Z,9.77
2022-12-23T13:37:24.241Z,9.84
2022-12-23T13:40:16.018Z,9.66
2022-12-23T13:42:56.823Z,9.61
2022-12-23T13:45:37.502Z,9.56
2022-12-23T13:48:32.964Z,9.51
2022-12-23T13:51:13.862Z,9.40
2022-12-23T13:54:04.170Z,9.43
2022-12-23T13:56:42.639Z,9.26
2022-12-23T13:59:17.886Z,9.20
2022-12-23T14:01:52.907Z,9.22
2022-12-23T14:04:36.659Z,8.96
2022-12-23T14:07:21.968Z,8.86
2022-12-23T14:10:00.574Z,8.73
2022-12-23T14:12:38.678Z,8.90
2022-12-23T14:15:29.342Z,8.84
2022-12-23T14:18:19.276Z,8.71
2022-12-23T14:21:09.368Z,8.44
2022-12-23T14:24:04.261Z,8.40
2022-12-23T14:27:01.249Z,8.45
2022-12-23T14:29:47.253Z,8.44
2022-12-23T14:32:26.026Z,8.40
2022-12-23T14:35:22.081Z,8.34
2022-12-23T14:38:24.991Z,10.43
2022-12-23T14:41:15.943Z,10.30
2022-12-23T14:43:58.195Z,9.65
2022-12-23T14:46:56.632Z,10.99
2022-12-23T14:49:46.252Z,12.05
2022-12-23T14:52:49.283Z,11.12
2022-12-23T14:55:46.701Z,10.07
2022-12-23T14:58:33.118Z,9.67
2022-12-23T15:01:14.100Z,9.20
2022-12-23T15:03:50.782Z,9.09
2022-12-23T15:06:34.227Z,8.94
2022-12-23T15:09:10.987Z,8.70
2022-12-23T15:11:45.633Z,8.64
2022-12-23T15:14:29.541Z,8.45
2022-12-23T15:17:19.264Z,8.50
2022-12-23T15:19:54.638Z,8.38
2022-12-23T15:22:32.744Z,8.23
2022-12-23T15:25:19.657Z,8.21
2022-12-23T15:28:01.490Z,8.25
2022-12-23T15:30:47.175Z,8.29
2022-12-23T15:36:30.803Z,8.08
2022-12-23T15:39:16.909Z,8.04
2022-12-23T15:41:51.139Z,7.86
2022-12-23T15:44:27.647Z,7.84
2022-12-23T15:47:02.248Z,7.81
2022-12-23T15:49:38.299Z,7.78
2022-12-23T15:52:19.827Z,7.66
2022-12-23T15:54:59.959Z,7.69
2022-12-23T15:57:34.469Z,7.59
2022-12-23T16:00:20.898Z,7.60
2022-12-23T16:03:00.996Z,8.72
2022-12-23T16:05:39.596Z,9.98
2022-12-23T16:08:30.223Z,9.08
2022-12-23T16:11:15.073Z,8.68
2022-12-23T16:13:58.746Z,8.29
2022-12-23T16:16:45.267Z,8.16
2022-12-23T16:19:40.348Z,8.08
2022-12-23T16:22:26.908Z,8.06
2022-12-23T16:25:12.251Z,7.80
2022-12-23T16:27:49.289Z,7.79
2022-12-23T16:30:29.280Z,7.69
2022-12-23T16:33:07.001Z,7.57
2022-12-23T16:35:43.499Z,7.46
2022-12-23T16:38:21.055Z,7.40
2022-12-23T16:40:57.610Z,7.41
2022-12-23T16:43:32.389Z,7.31
2022-12-23T16:46:08.495Z,7.27
2022-12-23T16:48:49.300Z,7.21
2022-12-23T16:51:24.771Z,7.12
2022-12-23T16:54:00.407Z,7.12
2022-12-23T16:56:37.112Z,7.07
2022-12-23T16:59:11.674Z,7.00
2022-12-23T17:01:48.604Z,6.96
2022-12-23T17:04:23.012Z,6.98
2022-12-23T17:06:57.529Z,6.99
2022-12-23T17:09:33.117Z,7.05
2022-12-23T17:12:12.322Z,6.99
2022-12-23T17:14:51.248Z,6.95
2022-12-23T17:17:26.550Z,6.91
2022-12-23T17:20:00.826Z,6.85
2022-12-23T17:22:36.969Z,6.89
2022-12-23T17:25:14.124Z,6.83
2022-12-23T17:27:50.153Z,6.83
2022-12-23T17:30:26.253Z,6.67
2022-12-23T17:33:01.957Z,6.64
2022-12-23T17:35:36.178Z,6.78
2022-12-23T17:38:13.701Z,6.57
2022-12-23T17:40:51.626Z,6.61
2022-12-23T17:43:27.384Z,6.69
2022-12-23T17:46:04.051Z,6.67
2022-12-23T17:48:44.992Z,6.62
2022-12-23T17:51:20.944Z,6.50
2022-12-23T17:53:58.264Z,6.56
2022-12-23T17:56:34.889Z,6.46
2022-12-23T17:59:09.753Z,6.35
2022-12-23T18:01:44.236Z,6.36
2022-12-23T18:04:18.793Z,6.43
2022-12-23T18:06:52.932Z,6.42
2022-12-23T19:51:51.878Z,8.19
2022-12-23T19:54:26.892Z,8.19
2022-12-23T19:57:01.184Z,7.43
2022-12-23T19:59:35.945Z,7.22
2022-12-23T20:02:15.106Z,7.05
2022-12-23T20:04:50.258Z,6.99
2022-12-23T20:07:25.938Z,6.92
2022-12-23T20:10:02.181Z,6.86
2022-12-23T20:12:36.733Z,9.97
2022-12-23T20:15:11.637Z,10.73
2022-12-23T20:17:46.160Z,9.47
2022-12-23T20:20:24.827Z,8.85
2022-12-23T20:23:01.344Z,8.18
2022-12-23T20:25:36.058Z,7.83
2022-12-23T20:28:10.806Z,7.49
2022-12-23T20:30:48.299Z,7.36
2022-12-23T20:33:22.866Z,7.17
2022-12-23T20:35:57.408Z,7.19
2022-12-23T20:38:35.123Z,7.14
2022-12-23T20:41:11.273Z,7.04
2022-12-23T20:43:56.919Z,6.80
2022-12-23T20:46:40.727Z,6.69
2022-12-23T20:49:14.985Z,6.71
2022-12-23T20:51:49.517Z,6.75
2022-12-23T20:54:32.017Z,6.63
2022-12-23T20:57:07.853Z,6.67
2022-12-23T20:59:43.064Z,6.70
2022-12-23T21:02:18.342Z,6.67
2022-12-23T21:04:52.585Z,6.67
2022-12-23T21:07:28.906Z,6.66
2022-12-23T21:10:05.307Z,6.69
2022-12-23T21:12:41.257Z,6.61
2022-12-23T21:15:15.737Z,6.54
2022-12-23T21:17:50.460Z,6.46
2022-12-23T21:20:24.849Z,6.48
2022-12-23T21:22:59.605Z,6.51
2022-12-23T21:25:35.202Z,8.59
2022-12-23T21:28:09.677Z,10.20
2022-12-23T21:30:45.480Z,10.37
2022-12-23T21:33:20.080Z,8.98
2022-12-23T21:35:54.319Z,8.45
2022-12-23T21:38:32.896Z,8.14
2022-12-23T21:41:14.233Z,7.82
2022-12-23T21:43:49.206Z,7.63
2022-12-23T21:46:24.542Z,7.68
2022-12-23T21:49:00.157Z,7.03
2022-12-23T21:51:40.109Z,6.82
2022-12-23T21:54:15.194Z,6.82
2022-12-23T21:56:50.717Z,6.75
2022-12-23T21:59:29.677Z,6.63
2022-12-23T22:02:07.098Z,6.62
2022-12-23T22:04:41.618Z,6.62
2022-12-23T22:07:15.790Z,6.57
2022-12-23T22:09:53.893Z,6.63
2022-12-23T22:12:29.480Z,6.56
2022-12-23T22:15:11.161Z,6.59
2022-12-23T22:17:46.120Z,6.57
2022-12-23T22:20:21.124Z,6.64
2022-12-23T22:22:55.635Z,6.62
2022-12-23T22:25:30.133Z,6.63
2022-12-23T22:28:06.479Z,6.58
2022-12-23T22:30:42.362Z,6.54
2022-12-23T22:33:16.904Z,6.52
2022-12-23T22:35:55.919Z,6.52
2022-12-23T22:38:30.097Z,6.65
2022-12-23T22:41:04.797Z,6.71
2022-12-23T22:43:40.368Z,6.67
2022-12-23T22:46:15.351Z,6.66
2022-12-23T22:48:50.439Z,6.66
2022-12-23T22:51:26.709Z,6.66
2022-12-23T22:54:03.009Z,6.98
2022-12-23T22:56:37.886Z,9.95
2022-12-23T22:59:20.351Z,10.58
2022-12-23T23:01:55.451Z,9.15
2022-12-23T23:04:29.649Z,8.70
2022-12-23T23:07:04.192Z,8.17
2022-12-23T23:09:43.333Z,7.63
2022-12-23T23:12:17.999Z,7.62
2022-12-23T23:14:53.532Z,7.50
2022-12-23T23:17:29.805Z,7.35
2022-12-23T23:20:04.098Z,7.21
2022-12-23T23:22:41.574Z,7.13
2022-12-23T23:25:15.970Z,7.08
2022-12-23T23:27:50.445Z,7.07
2022-12-23T23:30:26.142Z,6.97
2022-12-23T23:33:00.984Z,7.32
2022-12-23T23:35:35.232Z,7.28
2022-12-23T23:38:10.401Z,7.27
2022-12-23T23:40:44.616Z,7.10
2022-12-23T23:43:19.520Z,7.07
2022-12-23T23:45:55.384Z,7.06
2022-12-23T23:48:30.136Z,7.13
2022-12-23T23:51:06.146Z,7.24
2022-12-23T23:53:40.736Z,7.24
2022-12-23T23:56:15.789Z,7.12
2022-12-23T23:58:52.623Z,7.14
